METAR stanice u blizini

 

LYBE - Beograd / Surčin, Srbija
Ažurirano: 12/04/2024 14:00
Partly Cloudy
Partly Cloudy
 Pravac vetra Z
Vetar: Z 13 km/h
Temperatura: 24°C
Tačka rose: 13°C
Vlažnost: 50%
Pritisak: 1029 hPa
Oblaci: Partly Cloudy
Vidljivost: 10 km
Cloud details: Partly Cloudy 1219 m
2024/04/12 12:00 LYBE 121200Z 27007KT 240V300 9999 SCT040 24/13 Q1029 NOSIG
LYBT - Beograd / Batajnica, Srbija
Ažurirano: 12/04/2024 14:00
Vedro
Vedro
 Pravac vetra SZ
Vetar: SZ 9 km/h
Temperatura: 25°C
Tačka rose: 13°C
Vlažnost: 47%
Pritisak: 1029 hPa
Pregled: Vedro
Vidljivost: greater than 10 km
2024/04/12 12:00 LYBT 121200Z 31005KT 240V030 CAVOK 25/13 Q1029 NOSIG
LYVR - Vršac, Srbija
Ažurirano: 12/04/2024 14:00
Few Clouds
Few Clouds
 Pravac vetra S
Vetar: S 11 km/h
Temperatura: 24°C
Tačka rose: 14°C
Vlažnost: 54%
Pritisak: 1028 hPa
Oblaci: Few Clouds
Vidljivost: 10 km
Cloud details: Few Clouds 1311 m
2024/04/12 12:00 LYVR 121200Z 01006KT 290V060 9999 FEW043 24/14 Q1028 NOSIG
 
LYKV - Lađevci, Srbija
Ažurirano: 12/04/2024 14:00
Mostly Cloudy
Mostly Cloudy
 Pravac vetra SZ
Vetar: SZ 11 km/h
Temperatura: 23°C
Tačka rose: 13°C
Vlažnost: 53%
Pritisak: 1029 hPa
Oblaci: Mostly Cloudy
Vidljivost: 10 km
Cloud details: Mostly Cloudy 1524 m
2024/04/12 12:00 LYKV 121200Z 31006KT 280V340 9999 BKN050 23/13 Q1029 NOSIG
LYNI - Niš, Srbija
Ažurirano: 12/04/2024 14:00
Vedro
Vedro
 Pravac vetra SZ
Vetar: SZ 28 km/h
Temperatura: 24°C
Tačka rose: 13°C
Vlažnost: 50%
Pritisak: 1028 hPa
Pregled: Vedro
Vidljivost: greater than 10 km
2024/04/12 12:00 LYNI 121200Z 32015KT 290V350 CAVOK 24/13 Q1028 NOSIG
BKPR - Priština, Srbija
Ažurirano: 12/04/2024 14:00
Few Clouds
Few Clouds
 Pravac vetra S
Vetar: S 20 km/h
Temperatura: 23°C
Tačka rose: 9°C
Vlažnost: 41%
Pritisak: 1027 hPa
Oblaci: Few Clouds
Vidljivost: 10 km
Cloud details: Few Clouds 1676 m
2024/04/12 12:00 BKPR 121200Z 36011KT 9999 FEW055 23/09 Q1027 NOSIG
 
LHPP - Pecs / Pogany, Hungary
Ažurirano: 12/04/2024 13:45
Vedro
Vedro
 Pravac vetra varies
Vetar: varies 6 km/h
Temperatura: 22°C
Tačka rose: 11°C
Vlažnost: 50%
Pritisak: 1030 hPa
Pregled: Vedro
Vidljivost: greater than 10 km
2024/04/12 11:45 LHPP 121145Z AUTO VRB03KT CAVOK 22/11 Q1030
LHUD - Szeged, Hungary
Ažurirano: 04/07/2019 01:45
NOT Current
Vedro
Vedro
 Pravac vetra S
Vetar: S 7 km/h
Temperatura: 18°C
Tačka rose: 13°C
Vlažnost: 73%
Pritisak: 1019 hPa
Pregled: Vedro
Vidljivost: greater than 10 km
2019/07/03 23:45 LHUD 032345Z 35004KT CAVOK 18/13 Q1019
LRTR - Timisoara, Romania
Ažurirano: 12/04/2024 14:00
Vedro
Vedro
 Pravac vetra SSZ
Vetar: SSZ 11 km/h
Temperatura: 24°C
Tačka rose: 10°C
Vlažnost: 41%
Pritisak: 1028 hPa
Pregled: Vedro
Vidljivost: greater than 10 km
2024/04/12 12:00 LRTR 121200Z 33006KT 290V360 CAVOK 24/10 Q1028
 
LRCV - Craiova, Romania
Ažurirano: 12/04/2024 14:00
Vedro
Vedro
 Pravac vetra Z
Vetar: Z 9 km/h
Temperatura: 26°C
Tačka rose: 11°C
Vlažnost: 39%
Pritisak: 1025 hPa
Pregled: Vedro
Vidljivost: greater than 10 km
2024/04/12 12:00 LRCV 121200Z 27005KT 230V310 CAVOK 26/11 Q1025
LBSF - Sofia, Bulgaria
Ažurirano: 12/04/2024 14:00
Partly Cloudy
Partly Cloudy
 Pravac vetra varies
Vetar: varies 7 km/h
Temperatura: 24°C
Tačka rose: 6°C
Vlažnost: 31%
Pritisak: 1027 hPa
Oblaci: Partly Cloudy
Vidljivost: 10 km
Cloud details: Partly Cloudy 2316 m
2024/04/12 12:00 LBSF 121200Z VRB04KT 9999 SCT076 24/06 Q1027 NOSIG
LWSK - Skoplje, Makedonija
Ažurirano: 12/04/2024 14:20
Vedro
Vedro
 Pravac vetra JJZ
Vetar: JJZ 9 km/h
Temperatura: 26°C
Tačka rose: 11°C
Vlažnost: 39%
Pritisak: 1025 hPa
Pregled: Vedro
Vidljivost: greater than 10 km
2024/04/12 12:20 LWSK 121220Z 20005KT 160V270 CAVOK 26/11 Q1025 NOSIG
 
LYPG - Podgorica, Crna Gora
Ažurirano: 12/04/2024 14:00
Vedro
Vedro
 Pravac vetra J
Vetar: J 11 km/h
Temperatura: 27°C
Tačka rose: 9°C
Vlažnost: 32%
Pritisak: 1024 hPa
Pregled: Vedro
Vidljivost: greater than 10 km
2024/04/12 12:00 LYPG 121200Z 17006KT 130V200 CAVOK 27/09 Q1024 NOSIG
LQSA - Sarajevo, Bosna i Hercegovina
Ažurirano: 12/04/2024 14:00
Few Clouds
Few Clouds
 Pravac vetra SSZ
Vetar: SSZ 13 km/h
Temperatura: 21°C
Tačka rose: 11°C
Vlažnost: 53%
Pritisak: 1030 hPa
Oblaci: Few Clouds
Vidljivost: 10 km
Cloud details: Few Clouds 1372 m
2024/04/12 12:00 LQSA 121200Z 34007KT 280V030 9999 FEW045 21/11 Q1030 NOSIG
LDOS - Osijek, Hrvatksa
Ažurirano: 12/04/2024 14:00
Vedro
Vedro
 Pravac vetra ZSZ
Vetar: ZSZ 11 km/h
Temperatura: 22°C
Tačka rose: 11°C
Vlažnost: 50%
Pritisak: 1030 hPa
Pregled: Vedro
Vidljivost: greater than 10 km
2024/04/12 12:00 LDOS 121200Z 29006KT 240V360 CAVOK 22/11 Q1030